Time;durP1;ratioP1;P1;durP2;ratioP2;P2;SDS_P1;SDS_P2;PMS_P1;PMS_P2;Temp;Humidity;BMP_temperature;BMP_pressure;BME280_temperature;BME280_humidity;BME280_pressure;Samples;Min_cycle;Max_cycle;Signal;HPM_P1;HPM_P2
2023/07/17 00:01:42;;;;;;;18.38;12.30;;;25.00;99.90;;;;;;4954940;29;20149;-75
2023/07/17 00:04:08;;;;;;;17.50;11.98;;;24.90;99.90;;;;;;4955280;29;20121;-75
2023/07/17 00:06:33;;;;;;;17.67;12.05;;;24.90;99.90;;;;;;4955316;28;20023;-76
2023/07/17 00:08:59;;;;;;;21.73;13.07;;;24.90;99.90;;;;;;4973347;28;20137;-75
2023/07/17 00:11:25;;;;;;;19.65;12.27;;;24.80;99.90;;;;;;4975097;28;20023;-75
2023/07/17 00:13:51;;;;;;;16.35;11.63;;;24.90;99.90;;;;;;4975018;28;20019;-73
2023/07/17 00:16:17;;;;;;;19.25;12.93;;;25.00;99.90;;;;;;4975177;28;20039;-75
2023/07/17 00:18:43;;;;;;;15.68;11.10;;;25.00;99.90;;;;;;4974939;28;20452;-75
2023/07/17 00:21:10;;;;;;;17.77;12.18;;;25.10;99.90;;;;;;4974361;28;20118;-72
2023/07/17 00:23:36;;;;;;;16.58;11.18;;;25.20;99.90;;;;;;4974121;28;20027;-75
2023/07/17 00:26:02;;;;;;;19.33;11.25;;;25.20;99.90;;;;;;4974246;28;20110;-73
2023/07/17 00:28:27;;;;;;;29.52;12.30;;;25.20;99.90;;;;;;4973833;28;20047;-73
2023/07/17 00:30:53;;;;;;;17.25;11.85;;;25.10;99.90;;;;;;4972577;28;20030;-75
2023/07/17 00:33:19;;;;;;;19.48;11.85;;;25.00;99.90;;;;;;4973984;28;20027;-75
2023/07/17 00:35:45;;;;;;;16.00;11.60;;;25.00;99.90;;;;;;4973836;28;20085;-76
2023/07/17 00:38:11;;;;;;;19.45;11.82;;;25.00;99.90;;;;;;4972281;28;20034;-72
2023/07/17 00:40:40;;;;;;;16.15;11.35;;;25.10;99.90;;;;;;4972326;28;20042;-77
2023/07/17 00:43:11;;;;;;;18.58;11.93;;;25.20;99.90;;;;;;4973840;28;20026;-76
2023/07/17 00:45:39;;;;;;;17.60;12.13;;;25.20;99.90;;;;;;4956388;28;20439;-76
2023/07/17 00:48:05;;;;;;;16.00;11.00;;;25.20;99.90;;;;;;4973453;28;20366;-76
2023/07/17 00:50:31;;;;;;;19.88;11.50;;;25.20;99.90;;;;;;4973324;28;20030;-72
2023/07/17 00:52:57;;;;;;;18.15;12.20;;;25.20;99.90;;;;;;4973662;28;20116;-76
2023/07/17 00:55:23;;;;;;;19.55;11.70;;;25.10;99.90;;;;;;4972483;28;20035;-73
2023/07/17 00:57:51;;;;;;;18.63;11.00;;;25.20;99.90;;;;;;4973472;28;20038;-75
2023/07/17 01:00:18;;;;;;;18.83;11.48;;;25.20;99.90;;;;;;4973393;28;20062;-73
2023/07/17 01:02:47;;;;;;;19.77;12.20;;;25.20;99.90;;;;;;4955948;28;20031;-73
2023/07/17 01:05:13;;;;;;;15.77;10.80;;;25.10;99.90;;;;;;4955693;28;20030;-72
2023/07/17 01:07:39;;;;;;;15.25;10.45;;;25.10;99.90;;;;;;4971657;28;20050;-73
2023/07/17 01:10:06;;;;;;;18.23;11.93;;;25.10;99.90;;;;;;4973580;28;20050;-76
2023/07/17 01:12:36;;;;;;;18.45;10.63;;;25.10;99.90;;;;;;4972949;28;20070;-76
2023/07/17 01:15:03;;;;;;;15.77;11.82;;;25.10;99.90;;;;;;4971598;28;20117;-76
2023/07/17 01:17:29;;;;;;;15.20;10.77;;;25.10;99.90;;;;;;4973276;28;20030;-73
2023/07/17 01:19:55;;;;;;;17.67;10.82;;;25.00;99.90;;;;;;4971684;28;20037;-75
2023/07/17 01:22:26;;;;;;;19.45;11.88;;;25.00;99.90;;;;;;4973262;28;20030;-73
2023/07/17 01:24:51;;;;;;;16.63;11.40;;;24.90;99.90;;;;;;4973351;28;20540;-75
2023/07/17 01:27:18;;;;;;;19.80;10.70;;;24.90;99.90;;;;;;4973081;28;20022;-73
2023/07/17 01:29:44;;;;;;;19.35;11.93;;;24.80;99.90;;;;;;4972699;28;20042;-74
2023/07/17 01:32:10;;;;;;;16.13;11.20;;;24.90;99.90;;;;;;4973083;28;20384;-74
2023/07/17 01:34:36;;;;;;;15.98;10.15;;;24.90;99.90;;;;;;4972953;28;20505;-73
2023/07/17 01:37:02;;;;;;;18.65;10.32;;;24.90;99.90;;;;;;4972947;28;20401;-77
2023/07/17 01:39:30;;;;;;;18.85;10.95;;;25.00;99.90;;;;;;4971420;28;20050;-76
2023/07/17 01:41:56;;;;;;;16.38;11.25;;;24.80;99.90;;;;;;4972563;28;20023;-73
2023/07/17 01:44:28;;;;;;;22.15;12.50;;;;;;;;;;4972823;28;20109;-76
2023/07/17 01:46:57;;;;;;;28.80;13.90;;;24.80;99.90;;;;;;4972468;28;20023;-76
2023/07/17 01:49:23;;;;;;;23.33;13.32;;;24.80;99.90;;;;;;4972800;28;20042;-73
2023/07/17 01:51:49;;;;;;;22.35;14.27;;;24.70;99.90;;;;;;4971346;28;20031;-73
2023/07/17 01:54:15;;;;;;;17.33;11.98;;;24.60;99.90;;;;;;4971392;28;20121;-76
2023/07/17 01:56:42;;;;;;;22.48;13.18;;;24.70;99.90;;;;;;4971214;28;20026;-76
2023/07/17 01:59:08;;;;;;;24.85;12.80;;;24.70;99.90;;;;;;4971296;28;20038;-75
2023/07/17 02:01:34;;;;;;;19.55;12.35;;;24.80;99.90;;;;;;4970249;28;20121;-75
2023/07/17 02:04:00;;;;;;;17.98;12.45;;;24.90;99.90;;;;;;4971055;28;20046;-73
2023/07/17 02:06:28;;;;;;;20.10;11.40;;;24.80;99.90;;;;;;4971161;28;20492;-72
2023/07/17 02:08:54;;;;;;;21.25;11.63;;;24.80;99.90;;;;;;4970960;28;20150;-75
2023/07/17 02:11:26;;;;;;;20.73;12.90;;;24.80;99.90;;;;;;4955220;28;20392;-73
2023/07/17 02:13:53;;;;;;;19.45;11.65;;;24.70;99.90;;;;;;4972256;28;20129;-73
2023/07/17 02:16:19;;;;;;;19.88;12.23;;;24.70;99.90;;;;;;4972412;28;20472;-72
2023/07/17 02:18:45;;;;;;;18.15;10.82;;;24.70;99.90;;;;;;4972711;28;20031;-76
2023/07/17 02:21:10;;;;;;;21.70;11.70;;;24.80;99.90;;;;;;4971179;28;20069;-73
2023/07/17 02:23:36;;;;;;;16.05;10.88;;;24.70;99.90;;;;;;4972268;28;20058;-73
2023/07/17 02:26:03;;;;;;;20.80;11.55;;;24.70;99.90;;;;;;4970784;28;20034;-73
2023/07/17 02:28:29;;;;;;;17.42;11.95;;;24.60;99.90;;;;;;4972339;28;20043;-73
2023/07/17 02:30:55;;;;;;;19.27;11.73;;;24.50;99.90;;;;;;4972389;28;20053;-73
2023/07/17 02:33:21;;;;;;;20.05;11.50;;;24.50;99.90;;;;;;4972312;28;20059;-73
2023/07/17 02:35:46;;;;;;;18.30;11.50;;;24.50;99.90;;;;;;4972396;28;20477;-76
2023/07/17 02:38:12;;;;;;;20.33;12.43;;;24.50;99.90;;;;;;4955025;28;20540;-73
2023/07/17 02:40:38;;;;;;;18.48;11.95;;;24.50;99.90;;;;;;4972043;28;20030;-73
2023/07/17 02:43:06;;;;;;;19.27;12.05;;;24.40;99.90;;;;;;4971010;28;20035;-76
2023/07/17 02:45:32;;;;;;;16.42;11.38;;;24.30;99.90;;;;;;4971003;28;20041;-76
2023/07/17 02:47:58;;;;;;;17.65;11.68;;;24.30;99.90;;;;;;4972922;28;20480;-73
2023/07/17 02:50:23;;;;;;;20.00;12.52;;;24.30;99.90;;;;;;4972878;28;20022;-75
2023/07/17 02:52:49;;;;;;;17.98;10.88;;;24.30;99.90;;;;;;4971602;28;20031;-75
2023/07/17 02:55:15;;;;;;;16.52;10.90;;;24.30;99.90;;;;;;4971686;28;20061;-75
2023/07/17 02:57:41;;;;;;;17.05;11.65;;;24.30;99.90;;;;;;4973203;28;20041;-75
2023/07/17 03:00:08;;;;;;;21.42;12.65;;;24.30;99.90;;;;;;4972903;28;20066;-73
2023/07/17 03:02:35;;;;;;;18.30;11.43;;;24.30;99.90;;;;;;4972587;28;20046;-74
2023/07/17 03:05:04;;;;;;;16.55;12.45;;;24.30;99.90;;;;;;4971536;28;20445;-74
2023/07/17 03:08:00;;;;;;;19.50;11.85;;;24.30;99.90;;;;;;4972497;28;20405;-74
2023/07/17 03:10:27;;;;;;;19.58;11.90;;;24.40;99.90;;;;;;4932305;29;20048;-73
2023/07/17 03:12:53;;;;;;;19.08;11.45;;;24.40;99.90;;;;;;4934622;29;20032;-75
2023/07/17 03:15:19;;;;;;;15.38;12.07;;;24.40;99.90;;;;;;4935482;29;20047;-73
2023/07/17 03:17:44;;;;;;;17.13;12.25;;;24.40;99.90;;;;;;4935627;29;20031;-75
2023/07/17 03:20:13;;;;;;;23.73;12.77;;;24.50;99.90;;;;;;4935264;29;20048;-75
2023/07/17 03:22:39;;;;;;;20.15;11.68;;;24.50;99.90;;;;;;4919520;29;20036;-73
2023/07/17 03:25:06;;;;;;;16.58;11.07;;;24.60;99.90;;;;;;4919226;29;20123;-73
2023/07/17 03:27:33;;;;;;;18.27;12.48;;;24.60;99.90;;;;;;4918823;29;20090;-73
2023/07/17 03:29:59;;;;;;;22.85;12.73;;;24.60;99.90;;;;;;4933840;29;20035;-73
2023/07/17 03:32:25;;;;;;;19.48;11.82;;;24.60;99.90;;;;;;4934452;29;20371;-76
2023/07/17 03:34:50;;;;;;;20.83;11.32;;;24.60;99.90;;;;;;4935233;29;20404;-76
2023/07/17 03:37:16;;;;;;;19.40;11.75;;;24.50;99.90;;;;;;4934770;29;20032;-75
2023/07/17 03:39:42;;;;;;;20.77;13.55;;;24.60;99.90;;;;;;4933376;29;20043;-73
2023/07/17 03:42:11;;;;;;;20.40;12.57;;;24.60;99.90;;;;;;4931604;29;20039;-73
2023/07/17 03:44:38;;;;;;;18.85;10.75;;;24.60;99.90;;;;;;4934366;29;20051;-75
2023/07/17 03:47:07;;;;;;;16.67;10.65;;;24.60;99.90;;;;;;4950672;28;20397;-75
2023/07/17 03:49:35;;;;;;;15.13;9.82;;;24.90;99.90;;;;;;4967905;28;20046;-75
2023/07/17 03:52:02;;;;;;;15.88;10.18;;;25.50;99.90;;;;;;4958184;28;20026;-73
2023/07/17 03:54:28;;;;;;;18.42;10.30;;;26.20;99.90;;;;;;4976338;28;20093;-72
2023/07/17 03:56:55;;;;;;;15.35;9.60;;;26.70;99.90;;;;;;4964913;28;20062;-75
2023/07/17 03:59:22;;;;;;;15.90;10.30;;;27.40;99.90;;;;;;4974000;28;20031;-76
2023/07/17 04:01:49;;;;;;;13.27;9.18;;;27.90;99.90;;;;;;4974037;28;20027;-73
2023/07/17 04:04:14;;;;;;;16.33;9.68;;;28.20;99.90;;;;;;4970141;28;20032;-73
2023/07/17 04:06:40;;;;;;;14.10;8.80;;;28.60;99.90;;;;;;4957443;28;20035;-74
2023/07/17 04:09:06;;;;;;;23.13;9.48;;;29.30;99.90;;;;;;4956619;28;20134;-76
2023/07/17 04:11:32;;;;;;;15.25;8.65;;;29.90;99.90;;;;;;4974365;28;20145;-76
2023/07/17 04:13:58;;;;;;;21.25;11.90;;;30.30;99.40;;;;;;4957872;28;20489;-75
2023/07/17 04:16:27;;;;;;;46.17;29.05;;;30.50;98.20;;;;;;4957244;28;20026;-77
2023/07/17 04:18:55;;;;;;;18.92;10.57;;;30.90;97.60;;;;;;4957764;28;20035;-73
2023/07/17 04:21:20;;;;;;;18.33;11.93;;;31.40;97.00;;;;;;4974858;28;20464;-77
2023/07/17 04:23:50;;;;;;;30.40;18.25;;;31.00;95.30;;;;;;4972710;28;20031;-75
2023/07/17 04:26:20;;;;;;;23.15;16.02;;;30.80;95.20;;;;;;4957293;28;20027;-76
2023/07/17 04:28:46;;;;;;;22.75;14.40;;;31.60;95.60;;;;;;4973562;28;20042;-76
2023/07/17 04:31:12;;;;;;;21.88;13.75;;;32.50;93.70;;;;;;4973367;28;20396;-73
2023/07/17 04:33:38;;;;;;;19.60;13.63;;;32.40;93.50;;;;;;4957328;28;20086;-75
2023/07/17 04:36:08;;;;;;;20.92;13.50;;;33.00;93.10;;;;;;4973464;28;20023;-73
2023/07/17 04:38:34;;;;;;;23.38;14.80;;;32.80;92.90;;;;;;4973253;28;20125;-77
2023/07/17 04:41:00;;;;;;;22.33;14.13;;;32.20;92.00;;;;;;4957181;28;20106;-74
2023/07/17 04:43:27;;;;;;;22.55;14.55;;;;;;;;;;4957186;28;20045;-73
2023/07/17 04:45:54;;;;;;;25.48;16.27;;;32.80;99.90;;;;;;4957161;28;20030;-77
2023/07/17 04:48:23;;;;;;;31.48;19.35;;;;;;;;;;4956607;28;20397;-77
2023/07/17 04:50:49;;;;;;;27.25;16.90;;;32.70;93.10;;;;;;4977498;28;20081;-75
2023/07/17 04:53:15;;;;;;;23.38;17.48;;;33.10;93.30;;;;;;4973074;28;20031;-74
2023/07/17 04:55:41;;;;;;;25.75;18.15;;;33.50;92.70;;;;;;4973965;28;20354;-76
2023/07/17 04:58:06;;;;;;;23.85;16.85;;;33.50;92.30;;;;;;4957046;28;20062;-75
2023/07/17 05:00:35;;;;;;;29.02;17.52;;;33.60;92.60;;;;;;4956789;28;20023;-73
2023/07/17 05:03:01;;;;;;;23.75;19.52;;;33.70;92.80;;;;;;4956633;28;20030;-75
2023/07/17 05:05:28;;;;;;;22.50;17.15;;;32.50;92.20;;;;;;4956407;28;20034;-73
2023/07/17 05:07:55;;;;;;;26.52;16.45;;;32.30;93.00;;;;;;4956274;28;20058;-74
2023/07/17 05:10:22;;;;;;;20.05;15.23;;;31.60;93.80;;;;;;4955823;28;20046;-75
2023/07/17 05:12:47;;;;;;;18.70;15.43;;;31.00;94.10;;;;;;4973921;28;20400;-73
2023/07/17 05:15:15;;;;;;;25.63;15.57;;;30.50;95.70;;;;;;4972367;28;20019;-74
2023/07/17 05:17:42;;;;;;;20.65;15.52;;;30.20;96.40;;;;;;4972475;28;20023;-74
2023/07/17 05:20:09;;;;;;;27.92;16.50;;;30.30;97.90;;;;;;4973699;28;20110;-74
2023/07/17 05:22:36;;;;;;;21.40;15.48;;;30.30;98.50;;;;;;4972417;28;20057;-73
2023/07/17 05:25:03;;;;;;;21.63;15.30;;;30.50;99.40;;;;;;4972084;28;20465;-74
2023/07/17 05:27:28;;;;;;;23.73;14.82;;;30.60;98.30;;;;;;4971841;28;20034;-73
2023/07/17 05:29:54;;;;;;;24.33;14.93;;;30.70;97.50;;;;;;4955416;28;20414;-73
2023/07/17 05:32:20;;;;;;;22.40;15.30;;;30.70;97.70;;;;;;4972121;28;20031;-72
2023/07/17 05:34:46;;;;;;;21.40;15.70;;;30.90;97.30;;;;;;4956212;28;20031;-73
2023/07/17 05:37:13;;;;;;;19.60;15.13;;;31.00;96.80;;;;;;4957186;28;20511;-76
2023/07/17 05:39:39;;;;;;;23.48;15.57;;;30.90;96.90;;;;;;4956152;28;20484;-72
2023/07/17 05:42:06;;;;;;;20.38;14.88;;;31.10;96.90;;;;;;4954713;28;20027;-76
2023/07/17 05:44:32;;;;;;;23.88;14.93;;;30.90;96.30;;;;;;4955409;28;20069;-76
2023/07/17 05:47:00;;;;;;;23.98;15.55;;;31.00;96.10;;;;;;4956013;28;20027;-76
2023/07/17 05:49:27;;;;;;;27.75;15.10;;;31.20;96.40;;;;;;4955849;28;20043;-72
2023/07/17 05:51:53;;;;;;;39.92;17.67;;;31.40;96.10;;;;;;4956138;28;20030;-75
2023/07/17 05:54:20;;;;;;;21.40;14.73;;;31.40;96.40;;;;;;4955764;28;20069;-75
2023/07/17 05:56:47;;;;;;;21.65;14.38;;;31.10;96.90;;;;;;4955888;28;20039;-76
2023/07/17 05:59:14;;;;;;;26.02;15.43;;;31.20;96.50;;;;;;4971975;28;20077;-76
2023/07/17 06:01:39;;;;;;;24.80;17.20;;;31.40;96.10;;;;;;4973211;28;20043;-76
2023/07/17 06:04:07;;;;;;;21.98;15.60;;;31.40;95.80;;;;;;4973156;28;20048;-75
2023/07/17 06:06:33;;;;;;;21.42;14.93;;;31.50;95.90;;;;;;4972976;28;20154;-76
2023/07/17 06:09:01;;;;;;;21.75;14.43;;;31.70;95.50;;;;;;4973126;28;20130;-73
2023/07/17 06:11:27;;;;;;;21.58;15.48;;;31.80;95.80;;;;;;4972933;28;20082;-75
2023/07/17 06:13:53;;;;;;;24.38;15.40;;;31.50;95.70;;;;;;4973255;28;20468;-76
2023/07/17 06:16:19;;;;;;;22.58;14.63;;;31.60;95.20;;;;;;4972917;28;20033;-72
2023/07/17 06:18:44;;;;;;;20.65;14.32;;;31.60;95.40;;;;;;4973147;28;20030;-76
2023/07/17 06:21:10;;;;;;;26.67;14.95;;;32.00;95.90;;;;;;4973024;28;20081;-72
2023/07/17 06:23:36;;;;;;;21.38;13.95;;;32.50;94.90;;;;;;4973245;28;20026;-76
2023/07/17 06:26:03;;;;;;;26.90;15.75;;;32.40;95.00;;;;;;4972847;28;20035;-76
2023/07/17 06:28:29;;;;;;;21.88;12.90;;;32.60;94.30;;;;;;4972805;28;20114;-73
2023/07/17 06:30:55;;;;;;;25.20;13.23;;;;;;;;;;4971801;28;20049;-77
2023/07/17 06:33:23;;;;;;;34.63;16.10;;;33.20;94.00;;;;;;4972633;28;20027;-77
2023/07/17 06:35:48;;;;;;;35.08;15.75;;;33.10;93.70;;;;;;4972889;28;20042;-73
2023/07/17 06:38:14;;;;;;;33.38;16.05;;;33.10;93.80;;;;;;4972609;28;20026;-77
2023/07/17 06:40:40;;;;;;;32.35;16.35;;;33.10;93.20;;;;;;4972895;28;20114;-73
2023/07/17 06:43:06;;;;;;;24.08;15.50;;;33.10;93.50;;;;;;4972621;28;20031;-73
2023/07/17 06:45:34;;;;;;;21.90;13.75;;;33.20;93.20;;;;;;4986519;28;20113;-75
2023/07/17 06:47:59;;;;;;;25.58;15.32;;;33.40;93.10;;;;;;4994660;28;20034;-75
2023/07/17 06:50:25;;;;;;;28.17;15.45;;;33.60;93.00;;;;;;4995842;28;20173;-73
2023/07/17 06:52:51;;;;;;;26.02;14.90;;;33.70;93.10;;;;;;4990335;28;20030;-76
2023/07/17 06:55:17;;;;;;;24.63;13.52;;;33.60;93.00;;;;;;4976403;28;20031;-76
2023/07/17 06:57:42;;;;;;;22.13;13.75;;;34.00;93.20;;;;;;4976327;28;20027;-76
2023/07/17 07:00:09;;;;;;;19.38;12.00;;;34.10;92.70;;;;;;4976473;28;20031;-76
2023/07/17 07:02:35;;;;;;;24.83;14.27;;;34.10;92.60;;;;;;4976382;28;20023;-72
2023/07/17 07:05:01;;;;;;;19.58;13.63;;;34.10;93.10;;;;;;4976300;28;20433;-73
2023/07/17 07:07:27;;;;;;;19.95;11.73;;;34.30;92.70;;;;;;4976202;28;20054;-75
2023/07/17 07:09:53;;;;;;;20.90;12.63;;;34.10;92.80;;;;;;4976522;28;20122;-77
2023/07/17 07:12:19;;;;;;;24.23;13.45;;;34.20;92.80;;;;;;4976665;28;20030;-76
2023/07/17 07:14:44;;;;;;;18.58;13.10;;;34.00;92.60;;;;;;4976126;28;20023;-77
2023/07/17 07:17:10;;;;;;;26.40;13.52;;;33.90;92.50;;;;;;4976042;28;20015;-77
2023/07/17 07:19:36;;;;;;;16.73;11.07;;;34.00;92.50;;;;;;4976039;28;20129;-75
2023/07/17 07:22:02;;;;;;;18.67;12.10;;;34.10;92.90;;;;;;4975809;28;20049;-76
2023/07/17 07:24:28;;;;;;;16.73;11.75;;;34.10;91.90;;;;;;4976294;28;20041;-77
2023/07/17 07:26:54;;;;;;;23.63;12.23;;;34.50;92.40;;;;;;4975636;28;20030;-76
2023/07/17 07:29:19;;;;;;;23.63;13.85;;;34.70;91.90;;;;;;4975867;28;20035;-74
2023/07/17 07:31:45;;;;;;;26.27;12.82;;;34.30;91.80;;;;;;4975676;28;20038;-76
2023/07/17 07:34:11;;;;;;;23.48;13.85;;;34.40;91.80;;;;;;4975845;28;20078;-73
2023/07/17 07:36:37;;;;;;;23.63;12.27;;;34.80;91.90;;;;;;4975454;28;20097;-75
2023/07/17 07:39:05;;;;;;;20.05;13.00;;;35.00;92.30;;;;;;4976023;28;20465;-76
2023/07/17 07:41:33;;;;;;;21.58;12.68;;;;;;;;;;4975667;28;20023;-76
2023/07/17 07:43:59;;;;;;;23.23;14.15;;;35.10;91.00;;;;;;4975594;28;20504;-75
2023/07/17 07:46:24;;;;;;;18.58;12.20;;;35.10;92.30;;;;;;4975478;28;20023;-77
2023/07/17 07:48:50;;;;;;;20.63;12.18;;;35.50;92.40;;;;;;4975249;28;20064;-76
2023/07/17 07:51:16;;;;;;;19.08;11.32;;;35.60;92.60;;;;;;4975593;28;20019;-73
2023/07/17 07:53:42;;;;;;;19.27;11.55;;;35.60;91.90;;;;;;4975267;28;20536;-76
2023/07/17 07:56:08;;;;;;;23.50;11.95;;;35.90;92.70;;;;;;4975453;28;20031;-76
2023/07/17 07:58:33;;;;;;;29.65;12.30;;;35.70;91.40;;;;;;4986712;28;20019;-76
2023/07/17 08:00:59;;;;;;;19.98;10.75;;;35.50;90.80;;;;;;4975477;28;20469;-76
2023/07/17 08:03:26;;;;;;;31.98;12.00;;;35.50;91.60;;;;;;4974878;28;20030;-77
2023/07/17 08:05:52;;;;;;;19.73;12.43;;;35.70;90.90;;;;;;4975386;28;20019;-77
2023/07/17 08:08:18;;;;;;;19.38;12.38;;;35.60;91.80;;;;;;4974659;28;20113;-76
2023/07/17 08:10:43;;;;;;;21.02;12.95;;;35.70;91.10;;;;;;4975262;28;20092;-73
2023/07/17 08:13:09;;;;;;;28.25;12.35;;;35.20;91.00;;;;;;4974611;28;20023;-76
2023/07/17 08:15:35;;;;;;;17.58;11.48;;;35.30;91.20;;;;;;4975289;28;20028;-73
2023/07/17 08:18:01;;;;;;;15.90;9.38;;;35.70;91.20;;;;;;4974771;28;20019;-77
2023/07/17 08:20:27;;;;;;;17.13;10.00;;;35.20;90.40;;;;;;4974946;28;20023;-77
2023/07/17 08:22:55;;;;;;;19.80;10.38;;;34.90;89.10;;;;;;4974942;28;20030;-76
2023/07/17 08:25:22;;;;;;;22.63;10.35;;;35.20;91.20;;;;;;4975113;28;20027;-72
2023/07/17 08:27:48;;;;;;;17.10;9.68;;;34.80;90.50;;;;;;4974884;28;20133;-72
2023/07/17 08:30:14;;;;;;;21.98;11.07;;;35.00;90.50;;;;;;4974627;28;20070;-77
2023/07/17 08:32:40;;;;;;;21.70;10.23;;;35.50;90.30;;;;;;4974950;28;20027;-77
2023/07/17 08:35:07;;;;;;;18.73;10.90;;;35.70;90.50;;;;;;4974721;28;20496;-77
2023/07/17 08:37:33;;;;;;;19.00;10.00;;;35.70;90.90;;;;;;4975012;28;20101;-77
2023/07/17 08:39:59;;;;;;;15.52;9.32;;;35.80;91.00;;;;;;4974593;28;20118;-72
2023/07/17 08:42:25;;;;;;;19.27;9.93;;;35.80;90.60;;;;;;4974254;28;20131;-76
2023/07/17 08:44:53;;;;;;;19.27;10.68;;;35.80;90.60;;;;;;4974448;28;20536;-73
2023/07/17 08:47:20;;;;;;;23.83;10.65;;;35.70;90.20;;;;;;4974359;28;20057;-76
2023/07/17 08:49:47;;;;;;;18.52;10.20;;;35.30;90.40;;;;;;4974302;28;20497;-77
2023/07/17 08:52:14;;;;;;;18.13;10.90;;;35.30;90.90;;;;;;4974196;28;20054;-74
2023/07/17 08:54:40;;;;;;;20.98;11.38;;;35.30;91.70;;;;;;4974599;28;20027;-76
2023/07/17 08:57:06;;;;;;;15.02;9.88;;;35.60;90.80;;;;;;4974290;28;20473;-75
2023/07/17 08:59:34;;;;;;;18.30;11.52;;;35.40;91.10;;;;;;4974260;28;20043;-76
2023/07/17 09:02:02;;;;;;;18.48;9.30;;;35.00;91.30;;;;;;4974210;28;20027;-75
2023/07/17 09:04:31;;;;;;;22.25;11.85;;;35.40;99.90;;;;;;4973799;28;20358;-73
2023/07/17 09:06:58;;;;;;;16.42;9.43;;;;;;;;;;4974052;28;20030;-77
2023/07/17 09:09:24;;;;;;;16.25;9.98;;;35.20;94.20;;;;;;4973234;28;20045;-77
2023/07/17 09:12:12;;;;;;;17.13;9.80;;;36.40;99.90;;;;;;4974046;28;20372;-77
2023/07/17 09:14:39;;;;;;;17.88;9.45;;;35.60;99.90;;;;;;4973778;28;20042;-77
2023/07/17 09:17:07;;;;;;;12.35;7.68;;;36.40;97.90;;;;;;4974299;28;20050;-77
2023/07/17 09:19:34;;;;;;;16.90;10.57;;;35.80;88.50;;;;;;4973756;28;20030;-77
2023/07/17 09:22:05;;;;;;;18.73;10.20;;;35.70;89.30;;;;;;4973620;28;20480;-77
2023/07/17 09:24:37;;;;;;;15.48;9.63;;;35.90;88.60;;;;;;4973780;28;20027;-75
2023/07/17 09:27:07;;;;;;;17.55;10.10;;;36.10;87.10;;;;;;4973312;28;20109;-72
2023/07/17 09:29:33;;;;;;;13.80;8.48;;;36.00;95.20;;;;;;4973818;28;20130;-77
2023/07/17 09:32:18;;;;;;;15.70;10.15;;;35.70;88.70;;;;;;4973483;28;20480;-73
2023/07/17 09:35:07;;;;;;;17.77;9.60;;;35.30;88.20;;;;;;4973464;28;20444;-76
2023/07/17 09:37:35;;;;;;;20.52;9.40;;;35.40;87.60;;;;;;4973504;28;20031;-77
2023/07/17 09:40:12;;;;;;;14.45;9.40;;;35.40;88.40;;;;;;4973614;28;20472;-78
2023/07/17 09:42:41;;;;;;;16.08;8.90;;;35.60;88.70;;;;;;4973394;28;20046;-75
2023/07/17 09:45:07;;;;;;;15.95;9.88;;;35.60;86.70;;;;;;4973667;28;20031;-78
2023/07/17 09:47:34;;;;;;;14.38;9.38;;;34.90;87.90;;;;;;4973218;28;20023;-78
2023/07/17 09:50:01;;;;;;;12.70;8.73;;;35.40;87.30;;;;;;4973153;28;20039;-72
2023/07/17 09:52:29;;;;;;;18.80;9.55;;;35.70;88.40;;;;;;4973334;28;20027;-77
2023/07/17 09:54:55;;;;;;;14.07;8.48;;;35.80;87.00;;;;;;4973327;28;20019;-79
2023/07/17 09:57:34;;;;;;;14.82;9.25;;;36.00;87.60;;;;;;4973310;28;20531;-74
2023/07/17 10:00:03;;;;;;;11.82;8.82;;;;;;;;;;4972806;28;20027;-78
2023/07/17 10:02:38;;;;;;;16.23;9.60;;;36.60;90.40;;;;;;4973301;28;20063;-78
2023/07/17 10:05:06;;;;;;;15.25;10.23;;;35.80;85.40;;;;;;4973275;28;20500;-77
2023/07/17 10:07:35;;;;;;;14.27;8.35;;;35.70;86.10;;;;;;4972661;28;20051;-75
2023/07/17 10:10:03;;;;;;;15.18;8.38;;;36.10;87.50;;;;;;4973321;28;20047;-73
2023/07/17 10:12:30;;;;;;;14.13;7.78;;;36.40;84.70;;;;;;4972878;28;20062;-75
2023/07/17 10:14:57;;;;;;;12.25;8.73;;;36.70;83.20;;;;;;4973425;28;20030;-73
2023/07/17 10:17:30;;;;;;;14.10;8.52;;;;;;;;;;4973002;28;20030;-76
2023/07/17 10:19:59;;;;;;;13.80;9.20;;;;;;;;;;4973119;28;20060;-76
2023/07/17 10:22:32;;;;;;;12.75;8.57;;;;;;;;;;4975034;28;20101;-76
2023/07/17 10:24:58;;;;;;;12.63;8.80;;;37.10;85.60;;;;;;4977053;28;20089;-77
2023/07/17 10:27:45;;;;;;;16.92;9.57;;;37.00;84.90;;;;;;4977010;28;20026;-73
2023/07/17 10:30:34;;;;;;;12.70;8.85;;;36.40;85.80;;;;;;4976738;28;20134;-73
2023/07/17 10:33:13;;;;;;;10.95;8.02;;;;;;;;;;4976853;28;20068;-76
2023/07/17 10:35:57;;;;;;;12.73;8.05;;;36.50;89.60;;;;;;4976813;28;20035;-74
2023/07/17 10:38:24;;;;;;;13.32;8.38;;;;;;;;;;4977170;28;20086;-72
2023/07/17 10:41:13;;;;;;;13.48;8.23;;;36.70;94.10;;;;;;4976649;28;20026;-73
2023/07/17 10:44:01;;;;;;;11.85;8.10;;;36.60;93.20;;;;;;4969975;28;20504;-73
2023/07/17 10:46:31;;;;;;;17.90;8.73;;;36.60;93.20;;;;;;4986064;28;20037;-77
2023/07/17 10:49:17;;;;;;;12.55;8.18;;;36.60;93.00;;;;;;4996110;28;20438;-78
2023/07/17 10:51:45;;;;;;;11.25;7.97;;;;;;;;;;4995370;28;20065;-73
2023/07/17 10:54:15;;;;;;;10.77;7.80;;;36.10;84.70;;;;;;4991274;28;20383;-73
2023/07/17 10:56:45;;;;;;;10.55;7.13;;;35.90;84.00;;;;;;4976526;28;20023;-76
2023/07/17 10:59:11;;;;;;;12.45;7.45;;;36.20;84.20;;;;;;4976545;28;20058;-76
2023/07/17 11:01:37;;;;;;;12.43;7.55;;;36.30;83.60;;;;;;4976263;28;20035;-77
2023/07/17 11:04:07;;;;;;;13.18;8.15;;;36.30;84.50;;;;;;4976316;28;20097;-77
2023/07/17 11:06:33;;;;;;;12.38;7.57;;;36.50;84.10;;;;;;4976257;28;20159;-74
2023/07/17 11:08:59;;;;;;;10.50;6.82;;;36.70;83.60;;;;;;4975797;28;20507;-73
2023/07/17 11:11:25;;;;;;;10.13;6.72;;;36.70;83.10;;;;;;4976586;28;20118;-74
2023/07/17 11:13:54;;;;;;;11.40;7.07;;;36.70;83.40;;;;;;4975978;28;20058;-75
2023/07/17 11:16:22;;;;;;;9.77;6.85;;;36.40;83.10;;;;;;4976167;28;20030;-73
2023/07/17 11:18:53;;;;;;;10.20;7.20;;;36.60;83.10;;;;;;4975863;28;20023;-72
2023/07/17 11:21:20;;;;;;;;;;;36.80;83.70;;;;;;4976541;28;20034;-74
2023/07/17 11:23:52;;;;;;;11.40;7.28;;;36.70;83.30;;;;;;4975931;28;19914;-77
2023/07/17 11:26:21;;;;;;;13.95;6.80;;;36.70;82.70;;;;;;4976051;28;20388;-73
2023/07/17 11:28:50;;;;;;;8.98;6.22;;;36.60;84.70;;;;;;4975973;28;20027;-72
2023/07/17 11:31:22;;;;;;;15.70;8.30;;;36.70;81.90;;;;;;4975539;28;20027;-76
2023/07/17 11:33:58;;;;;;;10.30;5.95;;;;;;;;;;4975587;28;20067;-72
2023/07/17 11:36:39;;;;;;;8.95;5.95;;;36.90;91.40;;;;;;4975290;28;20077;-78
2023/07/17 11:39:13;;;;;;;12.95;6.53;;;37.10;88.90;;;;;;4975522;28;20528;-72
2023/07/17 11:41:46;;;;;;;10.18;6.75;;;37.10;90.00;;;;;;4975779;28;20038;-76
2023/07/17 11:44:15;;;;;;;8.23;5.20;;;36.90;92.80;;;;;;4975770;28;20034;-77
2023/07/17 11:46:41;;;;;;;11.25;6.68;;;37.20;90.30;;;;;;4975518;28;20027;-73
2023/07/17 11:49:07;;;;;;;9.30;6.28;;;37.30;88.50;;;;;;4975568;28;20499;-77
2023/07/17 11:51:33;;;;;;;10.13;6.78;;;37.30;82.80;;;;;;4975200;28;20023;-77
2023/07/17 11:53:59;;;;;;;13.88;6.38;;;;;;;;;;4958096;28;20042;-73
2023/07/17 11:56:35;;;;;;;10.60;6.95;;;37.30;83.40;;;;;;4975288;28;20034;-77
2023/07/17 11:59:00;;;;;;;11.43;6.57;;;37.20;84.40;;;;;;4975518;28;20114;-77
2023/07/17 12:01:26;;;;;;;8.43;5.57;;;36.90;84.60;;;;;;4975193;28;20173;-75
2023/07/17 12:03:52;;;;;;;11.52;6.78;;;36.90;83.30;;;;;;4975266;28;20057;-76
2023/07/17 12:06:18;;;;;;;11.02;6.00;;;37.10;85.60;;;;;;4975083;28;20465;-76
2023/07/17 12:08:46;;;;;;;9.38;6.03;;;36.60;82.40;;;;;;4974907;28;20058;-77
2023/07/17 12:11:12;;;;;;;12.13;6.45;;;37.00;83.70;;;;;;4975301;28;20066;-77
2023/07/17 12:13:38;;;;;;;9.93;6.38;;;36.80;85.70;;;;;;4975095;28;20491;-75
2023/07/17 12:16:04;;;;;;;8.15;6.35;;;36.70;83.60;;;;;;4975013;28;20022;-77
2023/07/17 12:18:30;;;;;;;13.10;6.28;;;36.80;85.40;;;;;;4974990;28;20416;-77
2023/07/17 12:20:56;;;;;;;10.38;6.53;;;36.80;84.50;;;;;;4975007;28;20026;-77
2023/07/17 12:23:23;;;;;;;19.52;7.85;;;36.90;84.80;;;;;;4974641;28;20055;-77
2023/07/17 12:25:49;;;;;;;8.45;6.53;;;36.80;83.90;;;;;;4974992;28;20519;-75
2023/07/17 12:28:15;;;;;;;10.75;6.57;;;36.80;84.80;;;;;;4975014;28;20437;-73
2023/07/17 12:30:41;;;;;;;12.05;6.68;;;36.80;85.40;;;;;;4974811;28;20031;-74
2023/07/17 12:33:07;;;;;;;11.43;6.50;;;36.70;82.70;;;;;;4974871;28;20018;-77
2023/07/17 12:35:33;;;;;;;10.57;6.25;;;37.00;83.50;;;;;;4974459;28;20087;-76
2023/07/17 12:37:59;;;;;;;10.43;6.18;;;37.00;82.10;;;;;;4974953;28;20039;-76